sensor_id;sensor_type;location;lat;lon;timestamp;pressure;altitude;pressure_sealevel;temperature;humidity
6565;BME280;3316;44.118;27.258;2023-03-04T00:01:25;101211.41;;;6.15;100.00
6565;BME280;3316;44.118;27.258;2023-03-04T00:03:50;101217.56;;;6.20;100.00
6565;BME280;3316;44.118;27.258;2023-03-04T00:06:16;101219.28;;;6.18;100.00
6565;BME280;3316;44.118;27.258;2023-03-04T00:08:41;101219.34;;;6.21;100.00
6565;BME280;3316;44.118;27.258;2023-03-04T00:11:07;101200.84;;;6.08;100.00
6565;BME280;3316;44.118;27.258;2023-03-04T00:13:32;101218.44;;;6.19;100.00
6565;BME280;3316;44.118;27.258;2023-03-04T00:15:58;101200.84;;;6.09;100.00
6565;BME280;3316;44.118;27.258;2023-03-04T00:18:23;101213.81;;;6.05;100.00
6565;BME280;3316;44.118;27.258;2023-03-04T00:20:49;101206.97;;;6.10;100.00
6565;BME280;3316;44.118;27.258;2023-03-04T00:23:15;101219.25;;;6.17;100.00
6565;BME280;3316;44.118;27.258;2023-03-04T00:25:41;101198.22;;;6.08;100.00
6565;BME280;3316;44.118;27.258;2023-03-04T00:28:06;101212.19;;;6.10;100.00
6565;BME280;3316;44.118;27.258;2023-03-04T00:30:32;101214.94;;;6.19;100.00
6565;BME280;3316;44.118;27.258;2023-03-04T00:32:57;101221.78;;;6.12;100.00
6565;BME280;3316;44.118;27.258;2023-03-04T00:35:23;101212.22;;;6.13;100.00
6565;BME280;3316;44.118;27.258;2023-03-04T00:37:48;101201.75;;;6.10;100.00
6565;BME280;3316;44.118;27.258;2023-03-04T00:40:14;101201.75;;;6.10;100.00
6565;BME280;3316;44.118;27.258;2023-03-04T00:42:39;101199.03;;;6.05;100.00
6565;BME280;3316;44.118;27.258;2023-03-04T00:45:05;101202.53;;;6.04;100.00
6565;BME280;3316;44.118;27.258;2023-03-04T00:47:31;101205.25;;;6.12;100.00
6565;BME280;3316;44.118;27.258;2023-03-04T00:49:56;101196.41;;;6.04;100.00
6565;BME280;3316;44.118;27.258;2023-03-04T00:52:21;101179.72;;;5.96;100.00
6565;BME280;3316;44.118;27.258;2023-03-04T00:54:47;101191.19;;;6.05;100.00
6565;BME280;3316;44.118;27.258;2023-03-04T00:57:12;101207.00;;;6.13;100.00
6565;BME280;3316;44.118;27.258;2023-03-04T00:59:38;101173.69;;;6.00;100.00
6565;BME280;3316;44.118;27.258;2023-03-04T01:02:05;101197.44;;;6.13;100.00
6565;BME280;3316;44.118;27.258;2023-03-04T01:04:31;101201.72;;;6.08;100.00
6565;BME280;3316;44.118;27.258;2023-03-04T01:06:57;101205.19;;;6.09;100.00
6565;BME280;3316;44.118;27.258;2023-03-04T01:09:22;101185.06;;;6.03;100.00
6565;BME280;3316;44.118;27.258;2023-03-04T01:11:48;101172.69;;;5.92;100.00
6565;BME280;3316;44.118;27.258;2023-03-04T01:14:13;101200.03;;;6.12;100.00
6565;BME280;3316;44.118;27.258;2023-03-04T01:16:39;101214.84;;;6.14;100.00
6565;BME280;3316;44.118;27.258;2023-03-04T01:19:04;101219.34;;;6.21;100.00
6565;BME280;3316;44.118;27.258;2023-03-04T01:21:29;101213.09;;;6.12;100.00
6565;BME280;3316;44.118;27.258;2023-03-04T01:23:55;101204.34;;;6.08;100.00
6565;BME280;3316;44.118;27.258;2023-03-04T01:26:21;101201.75;;;6.11;100.00
6565;BME280;3316;44.118;27.258;2023-03-04T01:28:46;101222.78;;;6.19;100.00
6565;BME280;3316;44.118;27.258;2023-03-04T01:31:11;101219.34;;;6.21;100.00
6565;BME280;3316;44.118;27.258;2023-03-04T01:33:37;101169.25;;;5.94;100.00
6565;BME280;3316;44.118;27.258;2023-03-04T01:36:02;101209.09;;;6.34;100.00
6565;BME280;3316;44.118;27.258;2023-03-04T01:38:28;101216.88;;;6.30;100.00
6565;BME280;3316;44.118;27.258;2023-03-04T01:40:53;101224.59;;;6.24;100.00
6565;BME280;3316;44.118;27.258;2023-03-04T01:43:24;101216.94;;;6.34;100.00
6565;BME280;3316;44.118;27.258;2023-03-04T01:45:52;101212.56;;;6.32;100.00
6565;BME280;3316;44.118;27.258;2023-03-04T01:48:23;101216.09;;;6.36;100.00
6565;BME280;3316;44.118;27.258;2023-03-04T01:50:49;101215.25;;;6.39;100.00
6565;BME280;3316;44.118;27.258;2023-03-04T01:53:25;101200.31;;;6.30;100.00
6565;BME280;3316;44.118;27.258;2023-03-04T01:55:53;101208.09;;;6.27;100.00
6565;BME280;3316;44.118;27.258;2023-03-04T01:58:19;101215.16;;;6.31;100.00
6565;BME280;3316;44.118;27.258;2023-03-04T02:00:45;101205.47;;;6.25;100.00
6565;BME280;3316;44.118;27.258;2023-03-04T02:03:14;101193.19;;;6.20;100.00
6565;BME280;3316;44.118;27.258;2023-03-04T02:05:42;101204.56;;;6.23;100.00
6565;BME280;3316;44.118;27.258;2023-03-04T02:08:09;101193.09;;;6.14;100.00
6565;BME280;3316;44.118;27.258;2023-03-04T02:10:37;101194.84;;;6.15;100.00
6565;BME280;3316;44.118;27.258;2023-03-04T02:13:02;101193.00;;;6.08;100.00
6565;BME280;3316;44.118;27.258;2023-03-04T02:15:29;101196.63;;;6.16;100.00
6565;BME280;3316;44.118;27.258;2023-03-04T02:17:55;101200.03;;;6.12;100.00
6565;BME280;3316;44.118;27.258;2023-03-04T02:23:51;101210.59;;;6.19;100.00
6565;BME280;3316;44.118;27.258;2023-03-04T02:26:22;101165.75;;;5.94;100.00
6565;BME280;3316;44.118;27.258;2023-03-04T02:28:49;101186.06;;;6.10;100.00
6565;BME280;3316;44.118;27.258;2023-03-04T02:34:14;101185.22;;;6.12;100.00
6565;BME280;3316;44.118;27.258;2023-03-04T02:36:41;101183.31;;;6.02;100.00
6565;BME280;3316;44.118;27.258;2023-03-04T02:41:46;101189.56;;;6.10;100.00
6565;BME280;3316;44.118;27.258;2023-03-04T02:44:18;101155.31;;;5.95;100.00
6565;BME280;3316;44.118;27.258;2023-03-04T02:46:44;101167.66;;;6.04;100.00
6565;BME280;3316;44.118;27.258;2023-03-04T02:49:09;101202.00;;;6.26;100.00
6565;BME280;3316;44.118;27.258;2023-03-04T02:51:35;101186.09;;;6.11;100.00
6565;BME280;3316;44.118;27.258;2023-03-04T02:54:00;101194.00;;;6.16;100.00
6565;BME280;3316;44.118;27.258;2023-03-04T02:56:26;101200.19;;;6.22;100.00
6565;BME280;3316;44.118;27.258;2023-03-04T02:58:51;101191.50;;;6.22;100.00
6565;BME280;3316;44.118;27.258;2023-03-04T03:01:17;101190.59;;;6.20;100.00
6565;BME280;3316;44.118;27.258;2023-03-04T03:03:42;101181.66;;;6.07;100.00
6565;BME280;3316;44.118;27.258;2023-03-04T03:06:08;101147.38;;;5.89;100.00
6565;BME280;3316;44.118;27.258;2023-03-04T03:08:33;101188.72;;;6.14;100.00
6565;BME280;3316;44.118;27.258;2023-03-04T03:10:58;101194.84;;;6.16;100.00
6565;BME280;3316;44.118;27.258;2023-03-04T03:13:24;101189.63;;;6.15;100.00
6565;BME280;3316;44.118;27.258;2023-03-04T03:15:49;101184.41;;;6.16;100.00
6565;BME280;3316;44.118;27.258;2023-03-04T03:18:15;101186.03;;;6.08;100.00
6565;BME280;3316;44.118;27.258;2023-03-04T03:20:40;101181.78;;;6.16;100.00
6565;BME280;3316;44.118;27.258;2023-03-04T03:23:06;101186.31;;;6.26;100.00
6565;BME280;3316;44.118;27.258;2023-03-04T03:25:31;101174.00;;;6.18;100.00
6565;BME280;3316;44.118;27.258;2023-03-04T03:27:57;101192.41;;;6.24;100.00
6565;BME280;3316;44.118;27.258;2023-03-04T03:30:23;101196.78;;;6.26;100.00
6565;BME280;3316;44.118;27.258;2023-03-04T03:32:48;101156.44;;;6.11;100.00
6565;BME280;3316;44.118;27.258;2023-03-04T03:35:14;101161.88;;;6.21;100.00
6565;BME280;3316;44.118;27.258;2023-03-04T03:37:39;101171.63;;;6.33;100.00
6565;BME280;3316;44.118;27.258;2023-03-04T03:40:05;101163.69;;;6.28;100.00
6565;BME280;3316;44.118;27.258;2023-03-04T03:42:31;101170.75;;;6.34;100.00
6565;BME280;3316;44.118;27.258;2023-03-04T03:44:56;101175.06;;;6.30;100.00
6565;BME280;3316;44.118;27.258;2023-03-04T03:47:21;101153.84;;;6.12;100.00
6565;BME280;3316;44.118;27.258;2023-03-04T03:49:47;101175.88;;;6.26;100.00
6565;BME280;3316;44.118;27.258;2023-03-04T03:52:12;101165.31;;;6.20;100.00
6565;BME280;3316;44.118;27.258;2023-03-04T03:54:38;101170.44;;;6.14;100.00
6565;BME280;3316;44.118;27.258;2023-03-04T03:57:03;101161.88;;;6.23;100.00
6565;BME280;3316;44.118;27.258;2023-03-04T03:59:29;101163.59;;;6.21;100.00
6565;BME280;3316;44.118;27.258;2023-03-04T04:01:55;101142.59;;;6.16;100.00
6565;BME280;3316;44.118;27.258;2023-03-04T04:04:20;101168.00;;;6.25;100.00
6565;BME280;3316;44.118;27.258;2023-03-04T04:06:46;101157.53;;;6.22;100.00
6565;BME280;3316;44.118;27.258;2023-03-04T04:09:11;101159.25;;;6.21;100.00
6565;BME280;3316;44.118;27.258;2023-03-04T04:11:36;101117.16;;;6.03;100.00
6565;BME280;3316;44.118;27.258;2023-03-04T04:14:02;101164.50;;;6.24;100.00
6565;BME280;3316;44.118;27.258;2023-03-04T04:16:27;101171.50;;;6.24;100.00
6565;BME280;3316;44.118;27.258;2023-03-04T04:18:53;101153.06;;;6.16;100.00
6565;BME280;3316;44.118;27.258;2023-03-04T04:21:18;101149.53;;;6.14;100.00
6565;BME280;3316;44.118;27.258;2023-03-04T04:23:44;101168.94;;;6.30;100.00
6565;BME280;3316;44.118;27.258;2023-03-04T04:26:09;101118.88;;;6.03;100.00
6565;BME280;3316;44.118;27.258;2023-03-04T04:28:35;101153.03;;;6.15;100.00
6565;BME280;3316;44.118;27.258;2023-03-04T04:31:00;101137.97;;;5.99;100.00
6565;BME280;3316;44.118;27.258;2023-03-04T04:33:26;101177.47;;;6.17;100.00
6565;BME280;3316;44.118;27.258;2023-03-04T04:35:51;101175.72;;;6.16;100.00
6565;BME280;3316;44.118;27.258;2023-03-04T04:38:17;101166.19;;;6.21;100.00
6565;BME280;3316;44.118;27.258;2023-03-04T04:40:42;101170.59;;;6.23;100.00
6565;BME280;3316;44.118;27.258;2023-03-04T04:43:08;101170.63;;;6.25;100.00
6565;BME280;3316;44.118;27.258;2023-03-04T04:45:33;101181.91;;;6.22;100.00
6565;BME280;3316;44.118;27.258;2023-03-04T04:47:59;101191.53;;;6.26;100.00
6565;BME280;3316;44.118;27.258;2023-03-04T04:50:25;101191.50;;;6.23;100.00
6565;BME280;3316;44.118;27.258;2023-03-04T04:52:51;101194.25;;;6.31;100.00
6565;BME280;3316;44.118;27.258;2023-03-04T04:55:17;101183.59;;;6.19;100.00
6565;BME280;3316;44.118;27.258;2023-03-04T04:57:42;101200.19;;;6.22;100.00
6565;BME280;3316;44.118;27.258;2023-03-04T05:00:08;101191.66;;;6.34;100.00
6565;BME280;3316;44.118;27.258;2023-03-04T05:02:35;101183.69;;;6.25;100.00
6565;BME280;3316;44.118;27.258;2023-03-04T05:05:05;101179.28;;;6.22;100.00
6565;BME280;3316;44.118;27.258;2023-03-04T05:07:32;101188.09;;;6.29;100.00
6565;BME280;3316;44.118;27.258;2023-03-04T05:09:58;101174.84;;;6.18;100.00
6565;BME280;3316;44.118;27.258;2023-03-04T05:12:23;101195.91;;;6.26;100.00
6565;BME280;3316;44.118;27.258;2023-03-04T05:14:49;101201.03;;;6.20;100.00
6565;BME280;3316;44.118;27.258;2023-03-04T05:17:14;101204.59;;;6.26;100.00
6565;BME280;3316;44.118;27.258;2023-03-04T05:19:40;101219.34;;;6.21;100.00
6565;BME280;3316;44.118;27.258;2023-03-04T05:22:05;101207.19;;;6.23;100.00
6565;BME280;3316;44.118;27.258;2023-03-04T05:24:30;101213.31;;;6.24;100.00
6565;BME280;3316;44.118;27.258;2023-03-04T05:26:56;101217.69;;;6.28;100.00
6565;BME280;3316;44.118;27.258;2023-03-04T05:29:21;101206.31;;;6.24;100.00
6565;BME280;3316;44.118;27.258;2023-03-04T05:31:47;101236.28;;;6.45;100.00
6565;BME280;3316;44.118;27.258;2023-03-04T05:34:12;101225.91;;;6.49;100.00
6565;BME280;3316;44.118;27.258;2023-03-04T05:36:38;101229.38;;;6.50;100.00
6565;BME280;3316;44.118;27.258;2023-03-04T05:39:03;101237.28;;;6.53;100.00
6565;BME280;3316;44.118;27.258;2023-03-04T05:41:29;101229.41;;;6.51;100.00
6565;BME280;3316;44.118;27.258;2023-03-04T05:43:54;101218.84;;;6.44;100.00
6565;BME280;3316;44.118;27.258;2023-03-04T05:46:20;101234.69;;;6.56;100.00
6565;BME280;3316;44.118;27.258;2023-03-04T05:48:50;101231.25;;;6.58;100.00
6565;BME280;3316;44.118;27.258;2023-03-04T05:51:15;101220.69;;;6.52;100.00
6565;BME280;3316;44.118;27.258;2023-03-04T05:53:41;101226.91;;;6.59;100.00
6565;BME280;3316;44.118;27.258;2023-03-04T05:56:11;101240.03;;;6.62;100.00
6565;BME280;3316;44.118;27.258;2023-03-04T05:58:37;101239.06;;;6.55;100.00
6565;BME280;3316;44.118;27.258;2023-03-04T06:01:04;101246.84;;;6.52;100.00
6565;BME280;3316;44.118;27.258;2023-03-04T06:03:29;101233.56;;;6.40;100.00
6565;BME280;3316;44.118;27.258;2023-03-04T06:05:55;101240.50;;;6.38;100.00
6565;BME280;3316;44.118;27.258;2023-03-04T06:08:21;101240.50;;;6.38;100.00
6565;BME280;3316;44.118;27.258;2023-03-04T06:10:46;101245.81;;;6.41;100.00
6565;BME280;3316;44.118;27.258;2023-03-04T06:13:12;101245.16;;;6.56;100.00
6565;BME280;3316;44.118;27.258;2023-03-04T06:15:38;101232.94;;;6.53;100.00
6565;BME280;3316;44.118;27.258;2023-03-04T06:18:05;101241.69;;;6.55;100.00
6565;BME280;3316;44.118;27.258;2023-03-04T06:20:30;101238.28;;;6.61;100.00
6565;BME280;3316;44.118;27.258;2023-03-04T06:22:56;101203.28;;;6.53;100.00
6565;BME280;3316;44.118;27.258;2023-03-04T06:25:21;101242.72;;;6.68;100.00
6565;BME280;3316;44.118;27.258;2023-03-04T06:27:47;101235.78;;;6.68;100.00
6565;BME280;3316;44.118;27.258;2023-03-04T06:30:13;101241.91;;;6.72;100.00
6565;BME280;3316;44.118;27.258;2023-03-04T06:32:38;101240.03;;;6.63;100.00
6565;BME280;3316;44.118;27.258;2023-03-04T06:35:05;101244.34;;;6.58;100.00
6565;BME280;3316;44.118;27.258;2023-03-04T06:37:30;101247.84;;;6.60;100.00
6565;BME280;3316;44.118;27.258;2023-03-04T06:39:56;101248.78;;;6.65;100.00
6565;BME280;3316;44.118;27.258;2023-03-04T06:42:21;101254.88;;;6.63;100.00
6565;BME280;3316;44.118;27.258;2023-03-04T06:44:48;101254.88;;;6.63;100.00
6565;BME280;3316;44.118;27.258;2023-03-04T06:47:13;101247.16;;;6.73;100.00
6565;BME280;3316;44.118;27.258;2023-03-04T06:49:39;101248.94;;;6.73;100.00
6565;BME280;3316;44.118;27.258;2023-03-04T06:52:04;101248.03;;;6.71;100.00
6565;BME280;3316;44.118;27.258;2023-03-04T06:54:30;101248.22;;;6.84;100.00
6565;BME280;3316;44.118;27.258;2023-03-04T06:56:55;101196.47;;;6.65;100.00
6565;BME280;3316;44.118;27.258;2023-03-04T06:59:21;101249.25;;;6.97;100.00
6565;BME280;3316;44.118;27.258;2023-03-04T07:01:46;101237.97;;;6.99;100.00
6565;BME280;3316;44.118;27.258;2023-03-04T07:04:12;101260.69;;;7.03;100.00
6565;BME280;3316;44.118;27.258;2023-03-04T07:06:38;101244.19;;;7.07;100.00
6565;BME280;3316;44.118;27.258;2023-03-04T07:09:03;101255.75;;;7.25;100.00
6565;BME280;3316;44.118;27.258;2023-03-04T07:11:29;101247.53;;;6.99;100.00
6565;BME280;3316;44.118;27.258;2023-03-04T07:13:54;101254.50;;;6.97;100.00
6565;BME280;3316;44.118;27.258;2023-03-04T07:16:21;101250.44;;;7.20;100.00
6565;BME280;3316;44.118;27.258;2023-03-04T07:18:47;101240.88;;;7.22;100.00
6565;BME280;3316;44.118;27.258;2023-03-04T07:21:13;101252.41;;;7.38;100.00
6565;BME280;3316;44.118;27.258;2023-03-04T07:23:39;101242.97;;;7.50;100.00
6565;BME280;3316;44.118;27.258;2023-03-04T07:26:05;101249.13;;;7.51;100.00
6565;BME280;3316;44.118;27.258;2023-03-04T07:28:31;101246.44;;;7.48;100.00
6565;BME280;3316;44.118;27.258;2023-03-04T07:31:07;101237.59;;;7.40;100.00
6565;BME280;3316;44.118;27.258;2023-03-04T07:33:33;101242.00;;;7.41;100.00
6565;BME280;3316;44.118;27.258;2023-03-04T07:35:59;101237.69;;;7.47;100.00
6565;BME280;3316;44.118;27.258;2023-03-04T07:38:24;101235.94;;;7.46;100.00
6565;BME280;3316;44.118;27.258;2023-03-04T07:40:59;101226.41;;;7.51;100.00
6565;BME280;3316;44.118;27.258;2023-03-04T07:43:24;101221.22;;;7.56;100.00
6565;BME280;3316;44.118;27.258;2023-03-04T07:45:50;101228.13;;;7.49;100.00
6565;BME280;3316;44.118;27.258;2023-03-04T07:48:15;101207.00;;;7.34;100.00
6565;BME280;3316;44.118;27.258;2023-03-04T07:50:41;101214.09;;;7.43;100.00
6565;BME280;3316;44.118;27.258;2023-03-04T07:53:06;101221.06;;;7.44;100.00
6565;BME280;3316;44.118;27.258;2023-03-04T07:55:32;101214.13;;;7.46;100.00
6565;BME280;3316;44.118;27.258;2023-03-04T07:57:57;101176.47;;;7.33;100.00
6565;BME280;3316;44.118;27.258;2023-03-04T08:00:22;101214.31;;;7.62;100.00
6565;BME280;3316;44.118;27.258;2023-03-04T08:02:48;101207.38;;;7.67;100.00
6565;BME280;3316;44.118;27.258;2023-03-04T08:05:14;101202.22;;;7.76;100.00
6565;BME280;3316;44.118;27.258;2023-03-04T08:07:39;101225.16;;;7.97;100.00
6565;BME280;3316;44.118;27.258;2023-03-04T08:10:05;101207.66;;;7.96;100.00
6565;BME280;3316;44.118;27.258;2023-03-04T08:12:32;101226.00;;;7.96;100.00
6565;BME280;3316;44.118;27.258;2023-03-04T08:14:58;101211.88;;;7.80;100.00
6565;BME280;3316;44.118;27.258;2023-03-04T08:17:23;101225.09;;;7.89;100.00
6565;BME280;3316;44.118;27.258;2023-03-04T08:19:48;101217.19;;;7.86;100.00
6565;BME280;3316;44.118;27.258;2023-03-04T08:22:14;101210.97;;;7.77;100.00
6565;BME280;3316;44.118;27.258;2023-03-04T08:24:39;101209.25;;;7.79;100.00
6565;BME280;3316;44.118;27.258;2023-03-04T08:27:05;101209.25;;;7.77;100.00
6565;BME280;3316;44.118;27.258;2023-03-04T08:29:30;101217.19;;;7.86;100.00
6565;BME280;3316;44.118;27.258;2023-03-04T08:31:56;101212.94;;;7.99;100.00
6565;BME280;3316;44.118;27.258;2023-03-04T08:34:25;101214.75;;;8.06;100.00
6565;BME280;3316;44.118;27.258;2023-03-04T08:36:50;101205.84;;;7.86;100.00
6565;BME280;3316;44.118;27.258;2023-03-04T08:39:17;101207.66;;;7.96;100.00
6565;BME280;3316;44.118;27.258;2023-03-04T08:41:43;101198.00;;;7.87;100.00
6565;BME280;3316;44.118;27.258;2023-03-04T08:44:09;101215.63;;;8.05;100.00
6565;BME280;3316;44.118;27.258;2023-03-04T08:46:36;101209.56;;;8.10;100.00
6565;BME280;3316;44.118;27.258;2023-03-04T08:49:03;101208.03;;;8.31;100.00
6565;BME280;3316;44.118;27.258;2023-03-04T08:51:29;101207.25;;;8.42;100.00
6565;BME280;3316;44.118;27.258;2023-03-04T08:53:54;101191.56;;;8.50;100.00
6565;BME280;3316;44.118;27.258;2023-03-04T08:56:20;101199.47;;;8.57;100.00
6565;BME280;3316;44.118;27.258;2023-03-04T08:58:45;101188.22;;;8.73;100.00
6565;BME280;3316;44.118;27.258;2023-03-04T09:01:12;101185.66;;;8.90;100.00
6565;BME280;3316;44.118;27.258;2023-03-04T09:03:39;101187.50;;;9.05;100.00
6565;BME280;3316;44.118;27.258;2023-03-04T09:06:05;101191.97;;;9.31;100.00
6565;BME280;3316;44.118;27.258;2023-03-04T09:08:32;101192.13;;;9.76;100.00
6565;BME280;3316;44.118;27.258;2023-03-04T09:10:57;101200.09;;;10.41;100.00
6565;BME280;3316;44.118;27.258;2023-03-04T09:13:24;101193.06;;;10.31;100.00
6565;BME280;3316;44.118;27.258;2023-03-04T09:15:51;101200.63;;;11.47;100.00
6565;BME280;3316;44.118;27.258;2023-03-04T09:18:18;101190.03;;;11.59;100.00
6565;BME280;3316;44.118;27.258;2023-03-04T09:20:44;101189.28;;;11.36;100.00
6565;BME280;3316;44.118;27.258;2023-03-04T09:23:10;101199.09;;;10.95;100.00
6565;BME280;3316;44.118;27.258;2023-03-04T09:25:37;101190.28;;;11.07;100.00
6565;BME280;3316;44.118;27.258;2023-03-04T09:28:04;101195.34;;;11.49;100.00
6565;BME280;3316;44.118;27.258;2023-03-04T09:30:30;101159.53;;;12.40;100.00
6565;BME280;3316;44.118;27.258;2023-03-04T09:32:56;101187.34;;;12.76;100.00
6565;BME280;3316;44.118;27.258;2023-03-04T09:35:22;101187.84;;;12.26;100.00
6565;BME280;3316;44.118;27.258;2023-03-04T09:37:47;101187.13;;;12.05;100.00
6565;BME280;3316;44.118;27.258;2023-03-04T09:40:22;101187.59;;;11.25;100.00
6565;BME280;3316;44.118;27.258;2023-03-04T09:42:58;101168.41;;;10.94;100.00
6565;BME280;3316;44.118;27.258;2023-03-04T09:45:36;101185.91;;;11.00;100.00
6565;BME280;3316;44.118;27.258;2023-03-04T09:48:04;101173.66;;;10.91;100.00
6565;BME280;3316;44.118;27.258;2023-03-04T09:50:32;101164.84;;;11.01;100.00
6565;BME280;3316;44.118;27.258;2023-03-04T09:53:18;101153.38;;;11.17;100.00
6565;BME280;3316;44.118;27.258;2023-03-04T09:55:49;101149.84;;;11.21;100.00
6565;BME280;3316;44.118;27.258;2023-03-04T09:58:28;101152.13;;;11.80;100.00
6565;BME280;3316;44.118;27.258;2023-03-04T10:01:06;101149.47;;;11.85;100.00
6565;BME280;3316;44.118;27.258;2023-03-04T10:06:12;101149.41;;;11.95;100.00
6565;BME280;3316;44.118;27.258;2023-03-04T10:17:07;101132.38;;;12.32;100.00
6565;BME280;3316;44.118;27.258;2023-03-04T10:20:10;101127.19;;;13.05;100.00
6565;BME280;3316;44.118;27.258;2023-03-04T10:25:30;101116.72;;;13.60;100.00
6565;BME280;3316;44.118;27.258;2023-03-04T10:27:59;101100.19;;;13.48;100.00
6565;BME280;3316;44.118;27.258;2023-03-04T10:33:00;101100.66;;;13.74;100.00
6565;BME280;3316;44.118;27.258;2023-03-04T10:35:32;101105.38;;;13.52;100.00
6565;BME280;3316;44.118;27.258;2023-03-04T10:38:02;101090.56;;;13.42;100.00
6565;BME280;3316;44.118;27.258;2023-03-04T10:40:28;101092.34;;;13.42;100.00
6565;BME280;3316;44.118;27.258;2023-03-04T10:42:54;101082.53;;;12.83;100.00
6565;BME280;3316;44.118;27.258;2023-03-04T10:45:23;101082.66;;;12.72;100.00
6565;BME280;3316;44.118;27.258;2023-03-04T10:47:55;101085.22;;;12.81;100.00
6565;BME280;3316;44.118;27.258;2023-03-04T10:50:26;101069.47;;;12.71;100.00
6565;BME280;3316;44.118;27.258;2023-03-04T10:52:53;101056.50;;;12.52;100.00
6565;BME280;3316;44.118;27.258;2023-03-04T10:55:40;101062.16;;;12.21;100.00
6565;BME280;3316;44.118;27.258;2023-03-04T10:58:06;101052.28;;;12.35;100.00
6565;BME280;3316;44.118;27.258;2023-03-04T11:00:37;101049.03;;;12.12;100.00
6565;BME280;3316;44.118;27.258;2023-03-04T11:06:16;101022.94;;;12.62;100.00
6565;BME280;3316;44.118;27.258;2023-03-04T11:08:42;101039.16;;;13.03;100.00
6565;BME280;3316;44.118;27.258;2023-03-04T11:11:30;101034.69;;;13.08;100.00
6565;BME280;3316;44.118;27.258;2023-03-04T11:14:01;101023.44;;;12.91;100.00
6565;BME280;3316;44.118;27.258;2023-03-04T11:16:30;101023.34;;;12.99;100.00
6565;BME280;3316;44.118;27.258;2023-03-04T11:19:03;101005.34;;;13.28;100.00
6565;BME280;3316;44.118;27.258;2023-03-04T11:21:33;101014.84;;;13.39;100.00
6565;BME280;3316;44.118;27.258;2023-03-04T11:24:04;101008.69;;;13.39;100.00
6565;BME280;3316;44.118;27.258;2023-03-04T11:26:37;101010.44;;;13.38;100.00
6565;BME280;3316;44.118;27.258;2023-03-04T11:29:10;100999.97;;;13.34;100.00
6565;BME280;3316;44.118;27.258;2023-03-04T11:34:38;100982.72;;;13.10;100.00
6565;BME280;3316;44.118;27.258;2023-03-04T11:42:06;100980.03;;;13.12;100.00
6565;BME280;3316;44.118;27.258;2023-03-04T11:44:37;100969.13;;;13.33;100.00
6565;BME280;3316;44.118;27.258;2023-03-04T11:47:32;100963.16;;;13.22;100.00
6565;BME280;3316;44.118;27.258;2023-03-04T11:50:07;100971.69;;;13.37;100.00
6565;BME280;3316;44.118;27.258;2023-03-04T12:00:59;100941.41;;;13.02;100.00
6565;BME280;3316;44.118;27.258;2023-03-04T12:09:00;100942.25;;;13.05;100.00
6565;BME280;3316;44.118;27.258;2023-03-04T12:11:37;100940.00;;;13.37;100.00
6565;BME280;3316;44.118;27.258;2023-03-04T12:14:16;100945.50;;;13.74;100.00
6565;BME280;3316;44.118;27.258;2023-03-04T12:31:01;100920.56;;;13.87;100.00
6565;BME280;3316;44.118;27.258;2023-03-04T12:39:26;100914.00;;;14.06;100.00
6565;BME280;3316;44.118;27.258;2023-03-04T12:42:33;100913.72;;;14.21;100.00
6565;BME280;3316;44.118;27.258;2023-03-04T12:45:24;100906.53;;;14.26;100.00
6565;BME280;3316;44.118;27.258;2023-03-04T12:48:15;100910.47;;;14.07;100.00
6565;BME280;3316;44.118;27.258;2023-03-04T12:53:34;100897.00;;;14.19;100.00
6565;BME280;3316;44.118;27.258;2023-03-04T12:56:03;100886.41;;;14.18;100.00
6565;BME280;3316;44.118;27.258;2023-03-04T12:58:31;100892.63;;;14.17;100.00
6565;BME280;3316;44.118;27.258;2023-03-04T13:01:17;100894.75;;;14.00;100.00
6565;BME280;3316;44.118;27.258;2023-03-04T13:14:08;100872.56;;;13.63;100.00
6565;BME280;3316;44.118;27.258;2023-03-04T13:24:57;100858.84;;;13.87;100.00
6565;BME280;3316;44.118;27.258;2023-03-04T13:43:48;100836.38;;;14.07;100.00
6565;BME280;3316;44.118;27.258;2023-03-04T13:48:57;100825.63;;;13.74;100.00
6565;BME280;3316;44.118;27.258;2023-03-04T13:51:28;100828.97;;;13.82;100.00
6565;BME280;3316;44.118;27.258;2023-03-04T14:01:34;100809.56;;;13.83;100.00
6565;BME280;3316;44.118;27.258;2023-03-04T14:06:54;100809.88;;;13.68;100.00
6565;BME280;3316;44.118;27.258;2023-03-04T14:09:30;100758.94;;;13.58;100.00
6565;BME280;3316;44.118;27.258;2023-03-04T14:12:02;100795.84;;;13.64;100.00
6565;BME280;3316;44.118;27.258;2023-03-04T14:14:42;100798.44;;;13.66;100.00
6565;BME280;3316;44.118;27.258;2023-03-04T14:17:17;100791.94;;;13.39;100.00
6565;BME280;3316;44.118;27.258;2023-03-04T14:19:45;100784.91;;;13.38;100.00
6565;BME280;3316;44.118;27.258;2023-03-04T14:22:31;100787.81;;;13.69;100.00
6565;BME280;3316;44.118;27.258;2023-03-04T14:25:06;100786.75;;;13.77;100.00
6565;BME280;3316;44.118;27.258;2023-03-04T14:27:34;100770.88;;;13.77;100.00
6565;BME280;3316;44.118;27.258;2023-03-04T14:30:03;100785.06;;;13.75;100.00
6565;BME280;3316;44.118;27.258;2023-03-04T14:32:29;100776.69;;;13.53;100.00
6565;BME280;3316;44.118;27.258;2023-03-04T14:34:57;100775.94;;;13.47;100.00
6565;BME280;3316;44.118;27.258;2023-03-04T14:38:18;100754.94;;;13.39;100.00
6565;BME280;3316;44.118;27.258;2023-03-04T14:40:39;100778.34;;;13.59;100.00
6565;BME280;3316;44.118;27.258;2023-03-04T14:43:12;100776.47;;;13.64;100.00
6565;BME280;3316;44.118;27.258;2023-03-04T14:45:41;100782.66;;;13.63;100.00
6565;BME280;3316;44.118;27.258;2023-03-04T14:48:07;100767.13;;;13.48;100.00
6565;BME280;3316;44.118;27.258;2023-03-04T14:50:33;100769.03;;;13.38;100.00
6565;BME280;3316;44.118;27.258;2023-03-04T14:55:34;100778.97;;;13.27;100.00
6565;BME280;3316;44.118;27.258;2023-03-04T14:58:06;100750.13;;;13.15;100.00
6565;BME280;3316;44.118;27.258;2023-03-04T15:00:34;100767.63;;;13.20;100.00
6565;BME280;3316;44.118;27.258;2023-03-04T15:03:02;100766.88;;;13.14;100.00
6565;BME280;3316;44.118;27.258;2023-03-04T15:05:30;100766.94;;;13.11;100.00